createdAt,value
2019-02-22T00:02:15.249Z,95666.08
2019-02-22T00:04:44.699Z,95665.10
2019-02-22T00:07:14.486Z,95659.16
2019-02-22T00:09:49.501Z,95659.16
2019-02-22T00:12:15.533Z,95660.48
2019-02-22T00:14:45.162Z,95661.58
2019-02-22T00:17:14.822Z,95661.58
2019-02-22T00:19:44.488Z,95650.34
2019-02-22T00:22:14.226Z,95648.60
2019-02-22T00:24:43.901Z,95648.60
2019-02-22T00:27:13.540Z,95654.24
2019-02-22T00:29:43.493Z,95644.76
2019-02-22T00:32:13.159Z,95631.75
2019-02-22T00:34:42.854Z,95621.64
2019-02-22T00:37:12.547Z,95621.64
2019-02-22T00:39:42.153Z,95621.28
2019-02-22T00:42:11.808Z,95613.09
2019-02-22T00:44:41.370Z,95619.65
2019-02-22T00:47:10.916Z,95607.48
2019-02-22T00:49:40.563Z,95611.63
2019-02-22T00:52:10.407Z,95609.21
2019-02-22T00:54:40.014Z,95599.28
2019-02-22T00:57:09.596Z,95600.23
2019-02-22T00:59:39.483Z,95592.52
2019-02-22T01:02:09.076Z,95582.31
2019-02-22T01:04:38.771Z,95583.59
2019-02-22T01:07:08.346Z,95581.19
2019-02-22T01:09:37.880Z,95584.41
2019-02-22T01:12:07.439Z,95589.70
2019-02-22T01:14:37.200Z,95579.75
2019-02-22T01:17:06.803Z,95577.84
2019-02-22T01:19:36.444Z,95577.19
2019-02-22T01:22:07.802Z,95579.72
2019-02-22T01:24:37.441Z,95576.20
2019-02-22T01:27:07.240Z,95571.38
2019-02-22T01:29:36.860Z,95562.11
2019-02-22T01:32:06.657Z,95561.90
2019-02-22T01:34:36.418Z,95547.66
2019-02-22T01:37:05.958Z,95547.66
2019-02-22T01:39:35.675Z,95552.39
2019-02-22T01:42:05.483Z,95552.39
2019-02-22T01:44:35.070Z,95546.79
2019-02-22T01:47:04.711Z,95540.27
2019-02-22T01:49:34.388Z,95551.14
2019-02-22T01:52:04.248Z,95542.52
2019-02-22T01:54:33.878Z,95532.94
2019-02-22T01:57:03.341Z,95532.94
2019-02-22T01:59:32.968Z,95529.25
2019-02-22T02:02:02.653Z,95525.56
2019-02-22T02:04:33.727Z,95522.20
2019-02-22T02:07:03.530Z,95513.36
2019-02-22T02:09:33.261Z,95507.00
2019-02-22T02:12:02.980Z,95508.28
2019-02-22T02:14:32.602Z,95498.50
2019-02-22T02:17:03.892Z,95493.37
2019-02-22T02:19:33.590Z,95487.73
2019-02-22T02:22:03.176Z,95490.61
2019-02-22T02:24:32.963Z,95492.39
2019-02-22T02:27:02.680Z,95493.00
2019-02-22T02:29:32.489Z,95485.33
2019-02-22T02:32:02.190Z,95492.55
2019-02-22T02:34:31.820Z,95483.72
2019-02-22T02:37:01.681Z,95483.09
2019-02-22T02:39:31.319Z,95483.09
2019-02-22T02:42:03.373Z,95479.41
2019-02-22T02:44:33.139Z,95468.53
2019-02-22T02:47:02.756Z,95476.53
2019-02-22T02:49:32.387Z,95473.66
2019-02-22T02:52:02.100Z,95472.03
2019-02-22T02:54:31.696Z,95471.40
2019-02-22T02:57:01.207Z,95469.64
2019-02-22T02:59:30.881Z,95461.47
2019-02-22T03:02:01.564Z,95465.78
2019-02-22T03:04:31.274Z,95460.66
2019-02-22T03:07:05.950Z,95464.68
2019-02-22T03:09:35.655Z,95460.68
2019-02-22T03:12:05.333Z,95446.74
2019-02-22T03:14:35.161Z,95446.74
2019-02-22T03:17:04.848Z,95448.33
2019-02-22T03:19:34.512Z,95444.96
2019-02-22T03:22:04.044Z,95436.14
2019-02-22T03:24:33.738Z,95438.38
2019-02-22T03:27:03.408Z,95432.61
2019-02-22T03:29:33.119Z,95435.47
2019-02-22T03:32:02.704Z,95429.70
2019-02-22T03:34:32.464Z,95429.70
2019-02-22T03:37:02.195Z,95419.45
2019-02-22T03:39:31.770Z,95420.41
2019-02-22T03:42:01.542Z,95415.63
2019-02-22T03:44:31.173Z,95413.67
2019-02-22T03:47:00.853Z,95415.42
2019-02-22T03:49:30.594Z,95411.44
2019-02-22T03:52:01.992Z,95408.20
2019-02-22T03:54:31.588Z,95403.08
2019-02-22T03:57:01.351Z,95410.16
2019-02-22T03:59:31.203Z,95407.59
2019-02-22T04:02:00.846Z,95399.55
2019-02-22T04:04:30.623Z,95392.64
2019-02-22T04:07:00.293Z,95391.03
2019-02-22T04:09:29.837Z,95394.09
2019-02-22T04:11:59.515Z,95395.38
2019-02-22T04:14:29.124Z,95392.50
2019-02-22T04:16:58.729Z,95388.32
2019-02-22T04:19:28.478Z,95384.03
2019-02-22T04:21:58.100Z,95384.03
2019-02-22T04:24:27.884Z,95388.02
2019-02-22T04:26:57.624Z,95376.14
2019-02-22T04:29:27.447Z,95368.13
2019-02-22T04:31:57.070Z,95354.49
2019-02-22T04:34:26.752Z,95350.97
2019-02-22T04:36:56.461Z,95353.00
2019-02-22T04:39:26.090Z,95352.34
2019-02-22T04:41:58.327Z,95345.92
2019-02-22T04:44:27.827Z,95338.22
2019-02-22T04:46:57.516Z,95344.29
2019-02-22T04:49:27.148Z,95341.69
2019-02-22T04:51:56.716Z,95342.14
2019-02-22T04:54:26.521Z,95345.86
2019-02-22T04:56:56.108Z,95341.66
2019-02-22T04:59:25.743Z,95332.62
2019-02-22T05:01:55.432Z,95337.77
2019-02-22T05:04:24.966Z,95336.80
2019-02-22T05:06:54.663Z,95336.48
2019-02-22T05:09:24.346Z,95335.84
2019-02-22T05:11:54.178Z,95326.80
2019-02-22T05:14:23.707Z,95331.66
2019-02-22T05:16:53.508Z,95331.58
2019-02-22T05:19:23.257Z,95337.00
2019-02-22T05:21:52.992Z,95329.25
2019-02-22T05:24:22.545Z,95325.00
2019-02-22T05:26:52.296Z,95325.91
2019-02-22T05:29:21.825Z,95324.58
2019-02-22T05:31:51.702Z,95322.77
2019-02-22T05:34:21.316Z,95327.91
2019-02-22T05:36:50.932Z,95325.92
2019-02-22T05:39:20.518Z,95334.28
2019-02-22T05:41:50.288Z,95334.92
2019-02-22T05:44:19.717Z,95326.40
2019-02-22T05:46:59.959Z,95319.88
2019-02-22T05:49:22.694Z,95324.81
2019-02-22T05:51:52.497Z,95322.52
2019-02-22T05:54:22.310Z,95316.06
2019-02-22T05:56:54.708Z,95317.62
2019-02-22T05:59:23.084Z,95312.96
2019-02-22T06:01:52.706Z,95317.84
2019-02-22T06:04:22.372Z,95312.00
2019-02-22T06:06:51.912Z,95313.59
2019-02-22T06:09:21.576Z,95312.74
2019-02-22T06:11:51.299Z,95301.80
2019-02-22T06:14:20.899Z,95308.47
2019-02-22T06:16:51.883Z,95306.81
2019-02-22T06:19:21.510Z,95316.67
2019-02-22T06:21:51.135Z,95310.64
2019-02-22T06:24:20.772Z,95306.31
2019-02-22T06:26:50.356Z,95302.75
2019-02-22T06:29:19.931Z,95284.59
2019-02-22T06:31:49.594Z,95305.55
2019-02-22T06:34:19.481Z,95297.61
2019-02-22T06:37:00.774Z,95303.06
2019-02-22T06:39:20.570Z,95293.94
2019-02-22T06:41:50.295Z,95280.41
2019-02-22T06:44:19.887Z,95290.71
2019-02-22T06:46:49.478Z,95288.33
2019-02-22T06:49:19.052Z,95274.20
2019-02-22T06:51:48.701Z,95281.41
2019-02-22T06:54:18.561Z,95273.27
2019-02-22T06:56:47.983Z,95283.02
2019-02-22T06:59:17.806Z,95278.42
2019-02-22T07:01:50.041Z,95278.42
2019-02-22T07:04:18.951Z,95267.53
2019-02-22T07:06:48.583Z,95269.34
2019-02-22T07:09:18.317Z,95266.14
2019-02-22T07:11:54.554Z,95250.41
2019-02-22T07:14:24.190Z,95244.00
2019-02-22T07:16:53.994Z,95246.86
2019-02-22T07:19:23.879Z,95245.05
2019-02-22T07:21:53.593Z,95246.86
2019-02-22T07:24:23.234Z,95244.91
2019-02-22T07:26:52.733Z,95244.91
2019-02-22T07:29:22.402Z,95240.88
2019-02-22T07:31:52.062Z,95240.88
2019-02-22T07:34:21.941Z,95235.34
2019-02-22T07:36:51.548Z,95236.66
2019-02-22T07:39:27.885Z,95232.66
2019-02-22T07:41:52.687Z,95237.32
2019-02-22T07:44:22.419Z,95234.85
2019-02-22T07:46:52.050Z,95234.56
2019-02-22T07:49:28.565Z,95237.25
2019-02-22T07:51:58.158Z,95228.08
2019-02-22T07:54:27.785Z,95225.06
2019-02-22T07:56:57.415Z,95219.77
2019-02-22T07:59:27.104Z,95221.93
2019-02-22T08:01:56.858Z,95216.70
2019-02-22T08:04:26.791Z,95216.70
2019-02-22T08:06:56.459Z,95216.70
2019-02-22T08:09:26.056Z,95216.70
2019-02-22T08:11:55.866Z,95217.47
2019-02-22T08:14:25.534Z,95219.28
2019-02-22T08:16:56.477Z,95215.42
2019-02-22T08:19:27.745Z,95212.60
2019-02-22T08:21:57.363Z,95206.59
2019-02-22T08:24:28.382Z,95200.66
2019-02-22T08:26:58.100Z,95190.22
2019-02-22T08:29:27.992Z,95191.87
2019-02-22T08:31:57.820Z,95187.26
2019-02-22T08:34:27.616Z,95185.06
2019-02-22T08:36:57.376Z,95179.22
2019-02-22T08:39:27.105Z,95170.72
2019-02-22T08:41:57.802Z,95167.81
2019-02-22T08:44:27.562Z,95167.81
2019-02-22T08:46:59.600Z,95169.23
2019-02-22T08:49:29.084Z,95172.28
2019-02-22T08:51:58.788Z,95170.00
2019-02-22T08:54:28.438Z,95164.47
2019-02-22T08:56:58.057Z,95152.61
2019-02-22T09:01:51.988Z,95153.10
2019-02-22T09:04:21.614Z,95154.30
2019-02-22T09:06:52.468Z,95146.53
2019-02-22T09:09:22.128Z,95150.27
2019-02-22T09:11:51.763Z,95149.09
2019-02-22T09:14:21.594Z,95147.04
2019-02-22T09:16:51.174Z,95144.56
2019-02-22T09:19:21.005Z,95139.75
2019-02-22T09:21:50.845Z,95139.46
2019-02-22T09:24:20.543Z,95135.22
2019-02-22T09:26:50.143Z,95130.97
2019-02-22T09:29:19.881Z,95136.34
2019-02-22T09:31:49.547Z,95134.53
2019-02-22T09:34:19.204Z,95133.77
2019-02-22T09:36:48.936Z,95129.57
2019-02-22T09:39:18.827Z,95127.40
2019-02-22T09:41:48.458Z,95134.67
2019-02-22T09:44:18.064Z,95126.13
2019-02-22T09:46:48.062Z,95128.18
2019-02-22T09:49:17.676Z,95120.43
2019-02-22T09:51:47.167Z,95120.36
2019-02-22T09:54:16.760Z,95115.63
2019-02-22T09:56:46.418Z,95114.48
2019-02-22T09:59:15.977Z,95112.23
2019-02-22T10:01:45.832Z,95119.30
2019-02-22T10:04:15.435Z,95108.95
2019-02-22T10:06:45.252Z,95109.19
2019-02-22T10:09:14.894Z,95108.43
2019-02-22T10:11:44.357Z,95105.35
2019-02-22T10:14:14.126Z,95103.80
2019-02-22T10:16:43.959Z,95103.50
2019-02-22T10:19:13.933Z,95092.55
2019-02-22T10:21:43.722Z,95085.64
2019-02-22T10:24:13.381Z,95083.56
2019-02-22T10:26:42.959Z,95078.42
2019-02-22T10:29:12.737Z,95074.66
2019-02-22T10:31:42.373Z,95073.68
2019-02-22T10:34:11.936Z,95057.99
2019-02-22T10:36:45.171Z,95073.91
2019-02-22T10:39:13.083Z,95065.06
2019-02-22T10:41:42.766Z,95055.73
2019-02-22T10:44:17.799Z,95045.89
2019-02-22T10:46:43.706Z,95051.36
2019-02-22T10:49:14.744Z,95045.98
2019-02-22T10:51:44.412Z,95041.91
2019-02-22T10:54:14.155Z,95041.98
2019-02-22T10:56:44.032Z,95027.08
2019-02-22T10:59:15.437Z,95025.59
2019-02-22T11:01:45.190Z,95024.21
2019-02-22T11:04:14.779Z,95017.44
2019-02-22T11:06:46.838Z,95019.22
2019-02-22T11:09:18.030Z,95015.24
2019-02-22T11:11:48.805Z,95015.11
2019-02-22T11:14:28.448Z,95013.98
2019-02-22T11:16:49.628Z,95012.60
2019-02-22T11:19:19.260Z,95002.75
2019-02-22T11:21:48.876Z,95008.80
2019-02-22T11:24:19.987Z,95000.97
2019-02-22T11:26:49.767Z,95006.01
2019-02-22T11:29:19.290Z,94999.91
2019-02-22T11:31:48.881Z,94998.50
2019-02-22T11:34:18.496Z,94999.66
2019-02-22T11:36:48.087Z,94991.47
2019-02-22T11:39:17.883Z,94988.32
2019-02-22T11:41:48.965Z,94987.33
2019-02-22T11:44:20.144Z,94984.67
2019-02-22T11:46:51.035Z,94984.50
2019-02-22T11:49:21.305Z,94976.38
2019-02-22T11:51:51.451Z,94975.02
2019-02-22T11:54:21.808Z,94967.55
2019-02-22T11:56:51.562Z,94970.03
2019-02-22T11:59:21.780Z,94963.59
2019-02-22T12:01:52.273Z,94959.33
2019-02-22T12:04:22.152Z,94958.78
2019-02-22T12:06:53.588Z,94951.91
2019-02-22T12:09:23.268Z,94949.96
2019-02-22T12:11:54.238Z,94948.13
2019-02-22T12:14:24.563Z,94941.99
2019-02-22T12:16:54.633Z,94940.09
2019-02-22T12:19:24.952Z,94942.70
2019-02-22T12:21:56.546Z,94932.63
2019-02-22T12:24:27.069Z,94930.13
2019-02-22T12:26:57.879Z,94928.05
2019-02-22T12:29:28.032Z,94926.55
2019-02-22T12:31:59.451Z,94925.86
2019-02-22T12:34:30.805Z,94920.17
2019-02-22T12:37:01.657Z,94922.21
2019-02-22T12:39:32.254Z,94913.34
2019-02-22T12:42:02.879Z,94912.58
2019-02-22T12:44:33.279Z,94908.86
2019-02-22T12:47:02.883Z,94907.45
2019-02-22T12:49:33.933Z,94911.80
2019-02-22T12:52:04.157Z,94911.10
2019-02-22T12:54:35.739Z,94904.77
2019-02-22T12:57:06.295Z,94904.59
2019-02-22T12:59:37.087Z,94910.69
2019-02-22T13:02:08.211Z,94916.31
2019-02-22T13:04:37.789Z,94914.89
2019-02-22T13:07:09.804Z,94908.97
2019-02-22T13:09:41.161Z,94913.15
2019-02-22T13:12:14.243Z,94911.09
2019-02-22T13:14:44.369Z,94909.00
2019-02-22T13:17:14.680Z,94900.59
2019-02-22T13:19:44.855Z,94908.25
2019-02-22T13:22:15.531Z,94908.20
2019-02-22T13:24:45.195Z,94902.19
2019-02-22T13:27:15.540Z,94905.30
2019-02-22T13:29:45.846Z,94908.26
2019-02-22T13:32:15.904Z,94899.70
2019-02-22T13:34:46.159Z,94905.39
2019-02-22T13:37:16.262Z,94906.67
2019-02-22T13:39:48.684Z,94905.40
2019-02-22T13:42:19.200Z,94906.60
2019-02-22T13:44:49.338Z,94901.72
2019-02-22T13:47:19.399Z,94900.95
2019-02-22T13:49:49.791Z,94900.58
2019-02-22T13:52:20.323Z,94897.98
2019-02-22T13:54:52.788Z,94904.73
2019-02-22T13:57:23.173Z,94903.73
2019-02-22T13:59:52.860Z,94902.46
2019-02-22T14:02:25.544Z,94903.11
2019-02-22T14:04:55.113Z,94902.23
2019-02-22T14:07:24.953Z,94896.74
2019-02-22T14:09:54.618Z,94898.44
2019-02-22T14:12:24.334Z,94894.36
2019-02-22T14:14:53.970Z,94889.66
2019-02-22T14:17:23.708Z,94892.98
2019-02-22T14:19:53.219Z,94897.50
2019-02-22T14:22:22.948Z,94897.80
2019-02-22T14:24:52.649Z,94898.20
2019-02-22T14:27:22.307Z,94891.95
2019-02-22T14:29:51.940Z,94889.34
2019-02-22T14:32:21.530Z,94892.02
2019-02-22T14:34:51.134Z,94899.36
2019-02-22T14:37:21.016Z,94893.40
2019-02-22T14:40:01.053Z,94894.97
2019-02-22T14:42:22.296Z,94891.63
2019-02-22T14:44:52.123Z,94891.66
2019-02-22T14:47:21.943Z,94885.70
2019-02-22T14:49:51.687Z,94893.34
2019-02-22T14:52:21.303Z,94886.69
2019-02-22T14:54:50.950Z,94884.23
2019-02-22T14:57:20.554Z,94882.22
2019-02-22T14:59:51.771Z,94881.22
2019-02-22T15:02:21.400Z,94882.73
2019-02-22T15:04:51.141Z,94885.08
2019-02-22T15:07:20.789Z,94882.11
2019-02-22T15:09:50.383Z,94881.22
2019-02-22T15:12:20.160Z,94888.30
2019-02-22T15:14:49.787Z,94890.20
2019-02-22T15:17:31.493Z,94888.56
2019-02-22T15:20:01.061Z,94888.56
2019-02-22T15:22:30.795Z,94893.22
2019-02-22T15:25:00.357Z,94886.47
2019-02-22T15:27:30.075Z,94893.12
2019-02-22T15:30:00.868Z,94892.02
2019-02-22T15:32:30.594Z,94890.22
2019-02-22T15:35:00.329Z,94887.83
2019-02-22T15:37:29.871Z,94888.02
2019-02-22T15:40:00.699Z,94891.63
2019-02-22T15:42:30.349Z,94907.55
2019-02-22T15:45:01.786Z,94890.27
2019-02-22T15:47:31.472Z,94890.27
2019-02-22T15:50:02.097Z,94889.18
2019-02-22T15:52:31.847Z,94886.36
2019-02-22T15:55:01.591Z,94884.36
2019-02-22T15:57:31.329Z,94895.08
2019-02-22T16:00:01.213Z,94897.01
2019-02-22T16:02:30.995Z,94897.01
2019-02-22T16:05:11.688Z,94895.25
2019-02-22T16:07:44.603Z,94895.25
2019-02-22T16:10:15.974Z,94894.15
2019-02-22T16:12:45.888Z,94897.41
2019-02-22T16:15:16.798Z,94899.02
2019-02-22T16:17:46.376Z,94903.00
2019-02-22T16:20:16.143Z,94907.02
2019-02-22T16:22:45.772Z,94904.01
2019-02-22T16:25:19.731Z,94904.01
2019-02-22T16:27:47.095Z,94908.28
2019-02-22T16:30:18.837Z,94909.05
2019-02-22T16:32:50.104Z,94919.23
2019-02-22T16:35:19.729Z,94918.99
2019-02-22T16:37:49.359Z,94921.93
2019-02-22T16:40:21.649Z,94921.93
2019-02-22T16:42:51.358Z,94917.48
2019-02-22T16:45:21.092Z,94921.98
2019-02-22T16:47:53.620Z,94922.45
2019-02-22T16:50:25.474Z,94925.09
2019-02-22T16:52:55.232Z,94921.75
2019-02-22T16:55:25.157Z,94930.43
2019-02-22T16:57:54.939Z,94930.92
2019-02-22T17:00:24.893Z,94919.97
2019-02-22T17:02:54.530Z,94932.23
2019-02-22T17:05:24.310Z,94933.01
2019-02-22T17:07:53.837Z,94942.21
2019-02-22T17:10:23.382Z,94938.66
2019-02-22T17:12:53.159Z,94939.11
2019-02-22T17:15:24.461Z,94937.70
2019-02-22T17:17:54.163Z,94945.28
2019-02-22T17:20:25.730Z,94943.25
2019-02-22T17:22:55.389Z,94940.13
2019-02-22T17:25:25.018Z,94940.98
2019-02-22T17:27:54.760Z,94947.13
2019-02-22T17:30:24.569Z,94937.55
2019-02-22T17:32:54.095Z,94936.81
2019-02-22T17:35:23.874Z,94935.19
2019-02-22T17:37:53.645Z,94940.41
2019-02-22T17:40:23.275Z,94941.56
2019-02-22T17:42:54.080Z,94943.28
2019-02-22T17:45:23.793Z,94937.41
2019-02-22T17:47:53.544Z,94939.32
2019-02-22T17:50:23.307Z,94930.33
2019-02-22T17:52:52.900Z,94934.23
2019-02-22T17:55:22.571Z,94933.55
2019-02-22T17:57:53.358Z,94930.02
2019-02-22T18:00:23.595Z,94928.91
2019-02-22T18:02:54.411Z,94932.86
2019-02-22T18:05:25.046Z,94930.16
2019-02-22T18:07:54.785Z,94935.94
2019-02-22T18:10:24.496Z,94919.64
2019-02-22T18:12:54.400Z,94923.52
2019-02-22T18:15:26.233Z,94924.58
2019-02-22T18:17:58.093Z,94923.66
2019-02-22T18:20:27.937Z,94920.64
2019-02-22T18:22:57.492Z,94916.25
2019-02-22T18:25:27.294Z,94920.28
2019-02-22T18:27:57.196Z,94914.91
2019-02-22T18:30:26.785Z,94914.65
2019-02-22T18:32:56.461Z,94916.11
2019-02-22T18:35:26.186Z,94919.34
2019-02-22T18:37:56.099Z,94909.41
2019-02-22T18:40:26.006Z,94910.03
2019-02-22T18:42:55.780Z,94913.84
2019-02-22T18:45:25.624Z,94907.00
2019-02-22T18:47:55.399Z,94914.05
2019-02-22T18:50:25.003Z,94905.97
2019-02-22T18:52:54.623Z,94910.67
2019-02-22T18:55:24.378Z,94901.13
2019-02-22T18:57:54.140Z,94897.27
2019-02-22T19:00:24.042Z,94897.97
2019-02-22T19:02:53.647Z,94891.27
2019-02-22T19:05:23.308Z,94895.09
2019-02-22T19:07:52.810Z,94892.70
2019-02-22T19:10:22.334Z,94896.32
2019-02-22T19:12:53.447Z,94894.60
2019-02-22T19:15:23.192Z,94896.72
2019-02-22T19:17:53.021Z,94895.25
2019-02-22T19:20:24.459Z,94889.80
2019-02-22T19:22:54.039Z,94891.05
2019-02-22T19:25:23.766Z,94894.60
2019-02-22T19:27:53.443Z,94893.50
2019-02-22T19:30:23.226Z,94893.46
2019-02-22T19:32:52.846Z,94895.98
2019-02-22T19:35:22.633Z,94883.47
2019-02-22T19:37:52.431Z,94877.48
2019-02-22T19:40:22.363Z,94880.67
2019-02-22T19:42:52.167Z,94881.62
2019-02-22T19:45:21.888Z,94882.34
2019-02-22T19:47:51.592Z,94895.25
2019-02-22T19:50:21.314Z,94889.71
2019-02-22T19:52:51.022Z,94892.73
2019-02-22T19:55:20.926Z,94882.38
2019-02-22T19:57:50.603Z,94893.27
2019-02-22T20:00:20.495Z,94897.13
2019-02-22T20:02:50.164Z,94881.23
2019-02-22T20:05:19.778Z,94885.62
2019-02-22T20:07:49.424Z,94880.66
2019-02-22T20:10:19.351Z,94881.41
2019-02-22T20:12:49.211Z,94884.34
2019-02-22T20:15:19.100Z,94885.63
2019-02-22T20:17:54.316Z,94878.57
2019-02-22T20:20:20.020Z,94864.95
2019-02-22T20:22:49.661Z,94863.88
2019-02-22T20:25:19.227Z,94871.17
2019-02-22T20:27:48.860Z,94864.20
2019-02-22T20:30:18.985Z,94859.55
2019-02-22T20:32:48.601Z,94869.34
2019-02-22T20:35:19.830Z,94870.59
2019-02-22T20:37:53.025Z,94869.66
2019-02-22T20:40:21.039Z,94871.30
2019-02-22T20:42:53.679Z,94863.36
2019-02-22T20:45:23.356Z,94864.37
2019-02-22T20:48:04.244Z,94862.47
2019-02-22T20:50:24.481Z,94862.95
2019-02-22T20:52:54.303Z,94861.55
2019-02-22T20:55:24.024Z,94862.25
2019-02-22T20:57:53.919Z,94873.83
2019-02-22T21:00:23.706Z,94856.84
2019-02-22T21:02:53.323Z,94870.95
2019-02-22T21:05:23.118Z,94866.42
2019-02-22T21:07:52.622Z,94858.88
2019-02-22T21:10:22.919Z,94867.22
2019-02-22T21:12:56.132Z,94863.98
2019-02-22T21:15:27.098Z,94860.48
2019-02-22T21:17:56.697Z,94861.59
2019-02-22T21:20:26.365Z,94861.51
2019-02-22T21:22:56.025Z,94853.92
2019-02-22T21:25:25.881Z,94861.68
2019-02-22T21:27:55.434Z,94864.64
2019-02-22T21:30:25.079Z,94857.82
2019-02-22T21:32:54.646Z,94856.22
2019-02-22T21:35:24.210Z,94856.36
2019-02-22T21:37:53.847Z,94851.52
2019-02-22T21:40:23.568Z,94862.44
2019-02-22T21:42:53.316Z,94858.75
2019-02-22T21:45:25.027Z,94854.27
2019-02-22T21:47:55.782Z,94866.10
2019-02-22T21:50:25.439Z,94863.67
2019-02-22T21:52:54.998Z,94858.13
2019-02-22T21:55:24.580Z,94857.64
2019-02-22T21:57:54.624Z,94867.98
2019-02-22T22:00:24.472Z,94861.45
2019-02-22T22:02:54.431Z,94862.83
2019-02-22T22:05:23.932Z,94853.64
2019-02-22T22:07:53.635Z,94856.20
2019-02-22T22:10:23.213Z,94859.36
2019-02-22T22:12:52.880Z,94862.16
2019-02-22T22:15:22.630Z,94859.59
2019-02-22T22:17:54.508Z,94860.34
2019-02-22T22:20:24.199Z,94866.23
2019-02-22T22:22:53.739Z,94870.23
2019-02-22T22:25:24.512Z,94876.45
2019-02-22T22:27:54.283Z,94878.23
2019-02-22T22:30:23.941Z,94879.02
2019-02-22T22:32:53.808Z,94889.63
2019-02-22T22:35:23.748Z,94890.29
2019-02-22T22:37:53.405Z,94897.95
2019-02-22T22:40:23.011Z,94902.31
2019-02-22T22:42:52.688Z,94905.23
2019-02-22T22:45:22.399Z,94917.63
2019-02-22T22:47:52.083Z,94917.42
2019-02-22T22:50:21.877Z,94927.70
2019-02-22T22:52:51.654Z,94931.48
2019-02-22T22:55:21.391Z,94932.56
2019-02-22T22:57:51.141Z,94935.69
2019-02-22T23:00:59.005Z,94947.05
2019-02-22T23:03:28.823Z,94951.50
2019-02-22T23:05:58.701Z,94981.23
2019-02-22T23:08:28.425Z,94981.23
2019-02-22T23:10:58.120Z,94998.41
2019-02-22T23:13:27.978Z,95031.41
2019-02-22T23:15:58.610Z,95056.06
2019-02-22T23:18:28.239Z,95056.06
2019-02-22T23:20:58.008Z,95099.80
2019-02-22T23:23:27.516Z,95106.41
2019-02-22T23:25:57.132Z,95106.41
2019-02-22T23:28:28.198Z,95113.33
2019-02-22T23:30:57.908Z,95128.38
2019-02-22T23:33:27.500Z,95147.39
2019-02-22T23:35:57.313Z,95153.64
2019-02-22T23:38:27.024Z,95153.64
2019-02-22T23:40:56.780Z,95169.30
2019-02-22T23:43:26.606Z,95185.53
2019-02-22T23:45:58.108Z,95189.17
2019-02-22T23:48:27.846Z,95204.59
2019-02-22T23:50:57.590Z,95215.80
2019-02-22T23:53:27.357Z,95216.66
2019-02-22T23:55:58.109Z,95228.03
2019-02-22T23:58:27.680Z,95237.91
